Llagostera (Gironès)





Hora UTC 07:45
Temperatura 8.9 ºC
Humitat 87.0 %
Pressió 1002.7 hPa
Pluja 0.2 mm
Velocitat vent 0.0 km/h
Direcció vent

Dades diàries 2022-12-10



Hora UTC (hivern +1h; estiu +2h)
Temperatura (ºC) Humitat (%) Pressió (hPa) Velocitat vent (km/h) Precipitació (mm)
Hora UTC Aire Humitat Pressió Vel. Dir. Vel. Max Dir. Intent. màx 5 min.
00:05 10.4 94.0 1000.3 0.0 0.0 0.0
00:15 10.5 94.0 1000.3 1.6 6.4 0.0
00:25 10.4 94.0 1000.2 3.2 6.4 0.0
00:35 10.4 94.0 1000.3 1.6 8.0 0.0
00:45 10.3 94.0 1000.2 1.6 8.0 0.0
00:55 10.3 94.0 1000.2 3.2 8.0 0.0
01:05 10.3 94.0 1000.2 3.2 8.0 0.0
01:15 10.2 94.0 1000.2 3.2 8.0 0.0
01:25 10.1 94.0 1000.3 3.2 8.0 0.0
01:35 9.9 93.0 1000.3 3.2 8.0 0.0
01:45 9.7 93.0 1000.5 1.6 8.0 0.0
01:55 9.5 93.0 1000.6 0.0 8.0 0.0
02:05 9.3 94.0 1000.6 0.0 8.0 0.0
02:15 9.3 93.0 1000.5 0.0 8.0 0.0
02:25 9.1 93.0 1000.6 0.0 8.0 0.0
02:35 9.0 94.0 1000.7 0.0 8.0 0.0
02:45 9.2 94.0 1000.8 0.0 8.0 0.0
02:55 9.3 94.0 1000.7 0.0 8.0 0.0
03:05 9.3 94.0 1000.6 0.0 8.0 0.0
03:15 9.3 94.0 1000.6 0.0 8.0 0.0
03:25 9.3 94.0 1000.7 0.0 8.0 0.0
03:35 9.4 94.0 1000.8 0.0 8.0 0.0
03:45 9.4 94.0 1000.6 0.0 8.0 0.0
03:55 9.3 94.0 1000.5 0.0 8.0 0.0
04:05 9.3 94.0 1000.6 0.0 8.0 0.0
04:15 9.3 94.0 1000.6 0.0 8.0 0.0
04:25 9.3 94.0 1000.8 0.0 9.7 0.0
04:35 9.7 95.0 1000.6 4.8 20.9 0.0
04:45 9.8 93.0 1000.7 9.7 20.9 0.2
04:55 9.8 92.0 1000.6 8.0 20.9 0.0
05:05 9.8 92.0 1000.9 6.4 20.9 0.0
05:15 9.7 91.0 1000.9 4.8 20.9 0.0
05:25 9.6 89.0 1000.9 8.0 24.1 0.0
05:35 9.5 88.0 1001.1 11.3 24.1 0.0
05:45 9.5 87.0 1001.3 9.7 24.1 0.0
05:55 9.4 87.0 1001.2 8.0 25.7 0.0
06:05 9.3 87.0 1001.6 8.0 25.7 0.0
06:25 9.3 86.0 1001.6 9.7 25.7 0.0
06:35 9.3 86.0 1001.7 8.0 25.7 0.0
06:45 9.2 86.0 1001.9 6.4 25.7 0.0
06:55 9.1 86.0 1002.1 3.2 25.7 0.0
07:05 9.0 86.0 1002.3 1.6 25.7 0.0
07:15 8.9 86.0 1002.4 1.6 25.7 0.0
07:25 8.9 86.0 1002.6 1.6 25.7 0.0
07:35 8.9 87.0 1002.6 1.6 25.7 0.0
07:45 8.9 87.0 1002.7 0.0 25.7 0.0
Màxima 10.7 95.0 1002.7 11.3 25.7 0.2
Mínima 8.9 86.0 1000.2
Total 0.2